Time;durP1;ratioP1;P1;durP2;ratioP2;P2;SDS_P1;SDS_P2;PMS_P1;PMS_P2;Temp;Humidity;BMP_temperature;BMP_pressure;BME280_temperature;BME280_humidity;BME280_pressure;Samples;Min_cycle;Max_cycle;Signal;HPM_P1;HPM_P2
2020/12/12 00:01:49;;;;;;;3.10;2.80;;;;;;;2.02;84.06;97444.12;1797817;79;20965;-65
2020/12/12 00:04:17;;;;;;;2.85;2.60;;;;;;;2.02;84.08;97442.80;1797996;79;21356;-65
2020/12/12 00:06:45;;;;;;;3.22;2.92;;;;;;;2.02;84.13;97436.18;1797862;79;21382;-65
2020/12/12 00:09:15;;;;;;;3.05;2.65;;;;;;;2.01;84.19;97440.63;1797817;79;20972;-65
2020/12/12 00:11:42;;;;;;;2.80;2.60;;;;;;;2.00;84.21;97445.52;1797809;79;20980;-65
2020/12/12 00:14:11;;;;;;;3.80;3.05;;;;;;;2.00;84.17;97449.50;1797744;79;20897;-65
2020/12/12 00:16:39;;;;;;;3.45;3.15;;;;;;;2.01;84.18;97448.58;1797836;79;21370;-65
2020/12/12 00:19:06;;;;;;;3.40;3.10;;;;;;;2.01;84.12;97453.88;1797826;79;20932;-65
2020/12/12 00:21:34;;;;;;;3.08;2.77;;;;;;;1.99;84.12;97458.40;1797807;79;20984;-65
2020/12/12 00:24:01;;;;;;;3.75;3.45;;;;;;;1.95;84.04;97456.83;1797718;79;21023;-65
2020/12/12 00:26:28;;;;;;;3.77;3.47;;;;;;;1.94;84.05;97456.42;1797809;79;21284;-65
2020/12/12 00:28:57;;;;;;;3.83;3.42;;;;;;;1.93;84.12;97456.05;1804000;79;21235;-65
2020/12/12 00:31:24;;;;;;;3.95;3.65;;;;;;;1.93;84.16;97450.76;1804285;79;20964;-65
2020/12/12 00:33:51;;;;;;;2.87;2.40;;;;;;;1.91;84.17;97450.83;1804223;79;21016;-65
2020/12/12 00:36:19;;;;;;;3.47;3.15;;;;;;;1.91;84.17;97457.93;1804238;79;20917;-65
2020/12/12 00:38:47;;;;;;;3.47;3.05;;;;;;;1.88;84.11;97447.01;1804407;79;21343;-65
2020/12/12 00:41:15;;;;;;;3.42;3.12;;;;;;;1.88;84.23;97454.11;1804328;79;21323;-65
2020/12/12 00:43:43;;;;;;;3.83;3.12;;;;;;;1.87;84.25;97449.73;1804123;79;20991;-65
2020/12/12 00:46:11;;;;;;;3.27;2.92;;;;;;;1.86;84.24;97452.86;1804235;79;20865;-65
2020/12/12 00:48:41;;;;;;;3.83;3.42;;;;;;;1.88;84.25;97456.76;1804320;79;20924;-65
2020/12/12 00:51:09;;;;;;;4.58;4.10;;;;;;;1.85;84.16;97446.31;1804431;79;20910;-65
2020/12/12 00:53:37;;;;;;;4.15;3.22;;;;;;;1.83;84.33;97442.86;1804286;79;21142;-65
2020/12/12 00:56:04;;;;;;;4.25;3.37;;;;;;;1.82;84.24;97446.47;1804174;79;21420;-65
2020/12/12 00:58:32;;;;;;;4.25;3.85;;;;;;;1.80;84.26;97445.22;1804283;79;20976;-65
2020/12/12 01:01:00;;;;;;;4.35;3.95;;;;;;;1.82;84.32;97443.81;1804258;79;20904;-65
2020/12/12 01:03:27;;;;;;;4.50;3.75;;;;;;;1.79;84.30;97448.31;1804356;79;21497;-65
2020/12/12 01:05:57;;;;;;;3.67;3.30;;;;;;;1.78;84.26;97442.64;1804230;79;21363;-65
2020/12/12 01:08:26;;;;;;;4.50;4.10;;;;;;;1.78;84.19;97432.05;1804143;79;20940;-64
2020/12/12 01:10:53;;;;;;;4.30;3.90;;;;;;;1.76;84.18;97429.92;1804266;79;20972;-64
2020/12/12 01:13:20;;;;;;;4.30;3.90;;;;;;;1.76;84.22;97429.92;1804149;79;20870;-64
2020/12/12 01:15:48;;;;;;;5.45;4.40;;;;;;;1.74;84.23;97422.53;1804281;79;20924;-64
2020/12/12 01:18:15;;;;;;;4.95;4.50;;;;;;;1.74;84.26;97430.95;1804318;79;21369;-64
2020/12/12 01:20:43;;;;;;;5.58;5.00;;;;;;;1.74;84.28;97426.50;1804240;79;21431;-65
2020/12/12 01:23:10;;;;;;;5.33;4.83;;;;;;;1.72;84.31;97432.80;1804193;79;20909;-65
2020/12/12 01:25:38;;;;;;;5.22;4.67;;;;;;;1.69;84.14;97430.30;1804266;79;21481;-65
2020/12/12 01:28:05;;;;;;;4.95;4.45;;;;;;;1.67;84.32;97421.14;1804271;77;20957;-65
2020/12/12 01:30:36;;;;;;;5.67;5.08;;;;;;;1.66;84.44;97428.67;1804284;79;21354;-65
2020/12/12 01:33:04;;;;;;;6.37;4.47;;;;;;;1.67;84.47;97425.11;1804197;79;21008;-65
2020/12/12 01:35:32;;;;;;;6.00;5.40;;;;;;;1.66;84.49;97420.73;1804247;79;21000;-65
2020/12/12 01:37:59;;;;;;;4.50;4.08;;;;;;;1.64;84.45;97423.94;1804243;79;20905;-65
2020/12/12 01:40:26;;;;;;;5.25;4.75;;;;;;;1.63;84.45;97422.21;1804302;79;20869;-65
2020/12/12 01:42:54;;;;;;;6.03;5.05;;;;;;;1.64;84.38;97431.87;1804187;79;21200;-65
2020/12/12 01:45:22;;;;;;;5.00;4.60;;;;;;;1.62;84.31;97424.45;1804111;79;20968;-65
2020/12/12 01:47:50;;;;;;;5.85;5.05;;;;;;;1.61;84.38;97424.09;1804288;79;20913;-65
2020/12/12 01:50:19;;;;;;;4.80;4.22;;;;;;;1.59;84.31;97421.95;1775483;79;20933;-65
2020/12/12 01:52:50;;;;;;;5.12;4.28;;;;;;;1.57;84.37;97425.16;1750691;79;20902;-65
2020/12/12 01:55:23;;;;;;;5.47;4.33;;;;;;;1.58;84.32;97429.53;1804232;79;21466;-65
2020/12/12 01:57:51;;;;;;;4.60;4.10;;;;;;;1.58;84.23;97430.38;1804221;79;20936;-65
2020/12/12 02:00:19;;;;;;;5.08;4.28;;;;;;;1.57;84.12;97425.16;1804343;79;20905;-65
2020/12/12 02:02:54;;;;;;;5.22;4.60;;;;;;;1.56;84.00;97426.07;1804252;79;21362;-65
2020/12/12 02:05:39;;;;;;;4.70;4.10;;;;;;;1.53;84.04;97420.93;1804350;79;21004;-64
2020/12/12 02:08:18;;;;;;;5.05;4.55;;;;;;;1.51;84.17;97416.19;1804368;79;21205;-64
2020/12/12 02:10:47;;;;;;;4.05;3.65;;;;;;;1.47;84.12;97422.55;1804219;79;20967;-64
2020/12/12 02:13:17;;;;;;;4.28;3.87;;;;;;;1.46;84.11;97436.73;1804204;79;20972;-64
2020/12/12 02:15:45;;;;;;;4.35;3.95;;;;;;;1.47;84.12;97428.72;1804199;79;20988;-64
2020/12/12 02:18:20;;;;;;;4.15;3.75;;;;;;;1.46;84.10;97440.70;1804279;79;20972;-64
2020/12/12 02:21:00;;;;;;;4.42;4.03;;;;;;;1.41;84.02;97431.18;1804063;79;21180;-64
2020/12/12 02:23:28;;;;;;;4.47;4.08;;;;;;;1.38;84.13;97423.39;1804231;79;20936;-64
2020/12/12 02:25:56;;;;;;;4.60;3.85;;;;;;;1.36;84.37;97426.58;1804211;79;20957;-64
2020/12/12 02:28:27;;;;;;;4.33;3.92;;;;;;;1.36;84.28;97429.23;1801269;79;20984;-64
2020/12/12 02:30:53;;;;;;;4.90;4.40;;;;;;;1.34;84.38;97424.48;1797762;79;20965;-65
2020/12/12 02:33:21;;;;;;;4.53;4.00;;;;;;;1.34;84.42;97434.19;1797898;79;21383;-64
2020/12/12 02:35:49;;;;;;;5.55;4.60;;;;;;;1.34;84.46;97431.10;1797861;79;20909;-64
2020/12/12 02:38:17;;;;;;;5.10;4.60;;;;;;;1.34;84.47;97433.75;1797919;79;20917;-64
2020/12/12 02:40:45;;;;;;;5.33;4.05;;;;;;;1.33;84.53;97432.02;1797914;79;20961;-65
2020/12/12 02:43:13;;;;;;;5.05;4.22;;;;;;;1.32;84.41;97434.27;1797936;79;21016;-64
2020/12/12 02:45:44;;;;;;;4.87;4.37;;;;;;;1.33;84.38;97428.05;1797848;79;22261;-65
2020/12/12 02:48:12;;;;;;;5.17;4.45;;;;;;;1.31;84.48;97428.59;1797889;79;21008;-64
2020/12/12 02:50:41;;;;;;;5.95;5.33;;;;;;;1.29;84.41;97423.83;1798002;79;21371;-66
2020/12/12 02:53:11;;;;;;;4.90;4.37;;;;;;;1.25;84.45;97420.48;1797886;79;20909;-65
2020/12/12 02:55:38;;;;;;;4.40;4.00;;;;;;;1.26;84.44;97431.91;1797798;79;20924;-65
2020/12/12 02:58:07;;;;;;;3.75;3.45;;;;;;;1.24;84.51;97420.55;1798052;79;21334;-65
2020/12/12 03:00:34;;;;;;;4.22;3.67;;;;;;;1.24;84.54;97416.58;1797922;79;20965;-65
2020/12/12 03:03:02;;;;;;;4.15;3.75;;;;;;;1.23;84.50;97427.64;1797863;79;20996;-65
2020/12/12 03:05:29;;;;;;;5.22;3.72;;;;;;;1.23;84.40;97424.11;1797817;79;20905;-65
2020/12/12 03:07:58;;;;;;;3.52;3.00;;;;;;;1.23;84.45;97430.73;1797885;79;20897;-65
2020/12/12 03:10:25;;;;;;;3.52;3.22;;;;;;;1.23;84.58;97434.25;1797941;79;21203;-65
2020/12/12 03:12:53;;;;;;;5.10;4.35;;;;;;;1.23;84.51;97437.34;1797820;79;20972;-65
2020/12/12 03:15:20;;;;;;;4.10;3.65;;;;;;;1.23;84.54;97432.05;1797886;79;21287;-65
2020/12/12 03:17:48;;;;;;;4.67;3.77;;;;;;;1.23;84.49;97442.19;1797849;79;21449;-65
2020/12/12 03:20:15;;;;;;;4.53;4.12;;;;;;;1.23;84.42;97438.66;1797821;79;21001;-65
2020/12/12 03:22:43;;;;;;;5.10;4.60;;;;;;;1.19;84.33;97433.98;1797902;79;21358;-65
2020/12/12 03:25:10;;;;;;;4.87;4.33;;;;;;;1.18;84.47;97434.06;1797756;79;20940;-65
2020/12/12 03:27:38;;;;;;;4.78;4.33;;;;;;;1.16;84.56;97428.00;1797927;79;20909;-65
2020/12/12 03:30:05;;;;;;;5.00;4.50;;;;;;;1.16;84.70;97428.00;1815311;79;21425;-65
2020/12/12 03:32:33;;;;;;;5.83;5.28;;;;;;;1.16;84.79;97435.45;1815469;79;20960;-65
2020/12/12 03:35:01;;;;;;;6.55;5.30;;;;;;;1.14;84.76;97426.74;1815468;79;21414;-65
2020/12/12 03:37:29;;;;;;;5.22;4.72;;;;;;;1.16;84.81;97429.31;1815487;79;20932;-65
2020/12/12 03:39:57;;;;;;;6.83;6.12;;;;;;;1.16;84.69;97426.67;1815453;79;20869;-65
2020/12/12 03:42:24;;;;;;;7.30;6.60;;;;;;;1.15;84.78;97424.95;1815457;78;21007;-65
2020/12/12 03:44:52;;;;;;;7.22;6.15;;;;;;;1.16;84.81;97426.67;1815412;79;20955;-65
2020/12/12 03:47:20;;;;;;;6.40;5.80;;;;;;;1.16;84.83;97426.67;1815615;79;21277;-66
2020/12/12 03:49:47;;;;;;;7.33;6.53;;;;;;;1.17;84.87;97424.43;1815370;79;20920;-65
2020/12/12 03:52:16;;;;;;;7.05;6.17;;;;;;;1.15;84.83;97418.33;1815459;79;20979;-65
2020/12/12 03:54:44;;;;;;;7.97;7.10;;;;;;;1.14;84.90;97430.70;1815314;79;20972;-65
2020/12/12 03:57:12;;;;;;;7.95;6.75;;;;;;;1.14;85.04;97420.61;1815475;79;20908;-66
2020/12/12 03:59:39;;;;;;;7.90;7.08;;;;;;;1.14;85.08;97428.54;1815401;79;21189;-65
2020/12/12 04:02:07;;;;;;;8.55;7.70;;;;;;;1.12;85.09;97421.12;1815349;79;20881;-65
2020/12/12 04:04:34;;;;;;;7.62;6.92;;;;;;;1.10;85.13;97430.92;1815533;79;21031;-65
2020/12/12 04:07:03;;;;;;;7.95;7.15;;;;;;;1.10;85.11;97425.63;1815330;79;20999;-65
2020/12/12 04:09:30;;;;;;;9.70;7.33;;;;;;;1.07;85.23;97423.53;1815470;78;20901;-65
2020/12/12 04:11:58;;;;;;;9.23;8.10;;;;;;;1.08;85.27;97426.55;1815364;79;21370;-65
2020/12/12 04:14:26;;;;;;;10.58;8.45;;;;;;;1.07;85.29;97432.80;1815406;79;20979;-65
2020/12/12 04:16:53;;;;;;;9.70;7.78;;;;;;;1.07;85.40;97438.52;1815390;79;20924;-65
2020/12/12 04:19:21;;;;;;;8.90;8.05;;;;;;;1.07;85.43;97432.80;1815355;79;20921;-65
2020/12/12 04:21:49;;;;;;;8.80;7.90;;;;;;;1.09;85.32;97430.08;1815361;79;21460;-65
2020/12/12 04:24:17;;;;;;;8.90;7.53;;;;;;;1.10;85.21;97426.48;1815520;79;21361;-65
2020/12/12 04:26:44;;;;;;;8.98;7.95;;;;;;;1.10;85.18;97422.52;1815401;79;21414;-65
2020/12/12 04:29:12;;;;;;;8.63;7.67;;;;;;;1.11;85.13;97433.97;1815333;79;21019;-65
2020/12/12 04:31:39;;;;;;;11.40;8.48;;;;;;;1.11;85.22;97422.07;1815346;78;21341;-65
2020/12/12 04:34:08;;;;;;;9.10;8.20;;;;;;;1.12;85.24;97429.94;1815444;79;20928;-65
2020/12/12 04:36:36;;;;;;;11.10;8.50;;;;;;;1.12;85.15;97421.12;1815321;79;23681;-65
2020/12/12 04:39:03;;;;;;;9.98;8.15;;;;;;;1.12;85.01;97414.51;1815346;79;20996;-65
2020/12/12 04:41:32;;;;;;;9.70;8.65;;;;;;;1.13;85.06;97414.44;1815422;79;20930;-65
2020/12/12 04:44:01;;;;;;;9.53;8.25;;;;;;;1.15;85.07;97421.86;1815379;79;20916;-65
2020/12/12 04:46:28;;;;;;;11.75;9.68;;;;;;;1.14;85.09;97420.61;1815333;78;20916;-65
2020/12/12 04:48:56;;;;;;;10.30;8.73;;;;;;;1.14;84.95;97413.99;1815450;78;21193;-65
2020/12/12 04:51:24;;;;;;;8.85;7.92;;;;;;;1.14;84.92;97415.31;1815295;78;21457;-65
2020/12/12 04:53:56;;;;;;;9.38;8.38;;;;;;;1.12;84.83;97410.55;1786269;79;21010;-65
2020/12/12 04:56:26;;;;;;;9.88;8.88;;;;;;;1.12;84.92;97415.83;1815438;79;21389;-65
2020/12/12 04:58:53;;;;;;;9.15;8.20;;;;;;;1.09;84.88;97420.82;1815469;78;20924;-65
2020/12/12 05:01:20;;;;;;;8.13;7.33;;;;;;;1.06;84.94;97420.48;1815338;79;21432;-65
2020/12/12 05:03:48;;;;;;;11.28;8.23;;;;;;;1.07;84.94;97420.89;1815350;79;20888;-65
2020/12/12 05:06:15;;;;;;;10.18;8.43;;;;;;;1.08;85.03;97431.84;1815348;79;21432;-65
2020/12/12 05:08:42;;;;;;;8.75;7.67;;;;;;;1.08;85.11;97429.20;1815385;79;21015;-65
2020/12/12 05:11:11;;;;;;;8.65;7.53;;;;;;;1.11;85.11;97433.97;1815405;79;20912;-66
2020/12/12 05:13:39;;;;;;;9.73;7.67;;;;;;;1.11;84.95;97423.39;1815417;79;21199;-65
2020/12/12 05:16:07;;;;;;;10.13;8.30;;;;;;;1.12;84.76;97428.61;1815322;79;20881;-65
2020/12/12 05:18:35;;;;;;;8.50;7.58;;;;;;;1.13;84.63;97432.11;1815271;79;21073;-65
2020/12/12 05:21:02;;;;;;;8.58;7.33;;;;;;;1.11;84.58;97437.94;1815355;79;21016;-64
2020/12/12 05:23:30;;;;;;;7.30;6.53;;;;;;;1.09;84.54;97436.69;1815434;79;20924;-64
2020/12/12 05:25:58;;;;;;;8.43;7.35;;;;;;;1.07;84.47;97434.55;1815340;79;21132;-64
2020/12/12 05:28:25;;;;;;;8.25;7.30;;;;;;;1.05;84.56;97434.63;1815161;79;20968;-65
2020/12/12 05:30:53;;;;;;;7.62;6.78;;;;;;;1.03;84.66;97431.68;1797830;79;20965;-65
2020/12/12 05:33:24;;;;;;;8.50;6.83;;;;;;;1.03;84.72;97431.20;1797755;79;20902;-65
2020/12/12 05:35:52;;;;;;;7.37;6.33;;;;;;;1.04;84.66;97431.61;1797862;79;21000;-65
2020/12/12 05:38:20;;;;;;;7.25;6.42;;;;;;;1.05;84.62;97431.98;1797762;79;23569;-65
2020/12/12 05:40:55;;;;;;;6.80;5.75;;;;;;;1.06;84.60;97439.00;1797758;79;21950;-65
2020/12/12 05:43:33;;;;;;;6.42;5.58;;;;;;;1.06;84.46;97432.86;1797798;79;20996;-65
2020/12/12 05:46:01;;;;;;;6.67;6.00;;;;;;;1.05;84.37;97435.10;1797672;79;20889;-65
2020/12/12 05:48:29;;;;;;;5.40;4.90;;;;;;;1.02;84.33;97438.73;1797793;79;20865;-65
2020/12/12 05:50:56;;;;;;;6.97;6.37;;;;;;;1.01;84.27;97433.08;1797791;79;21183;-65
2020/12/12 05:53:24;;;;;;;9.23;5.70;;;;;;;0.99;84.27;97434.91;1797569;79;21990;-65
2020/12/12 05:55:54;;;;;;;6.00;5.40;;;;;;;0.99;84.34;97437.55;1797761;79;21640;-66
2020/12/12 05:58:23;;;;;;;6.25;5.53;;;;;;;0.99;84.29;97432.27;1797800;79;21008;-66
2020/12/12 06:00:52;;;;;;;5.75;5.25;;;;;;;1.00;84.39;97433.14;1797736;79;20913;-64
2020/12/12 06:03:31;;;;;;;5.00;4.37;;;;;;;0.97;84.25;97428.84;1797825;79;23521;-64
2020/12/12 06:06:04;;;;;;;5.33;4.80;;;;;;;0.98;84.10;97435.86;1797724;79;20980;-65
2020/12/12 06:08:38;;;;;;;5.85;5.25;;;;;;;0.98;84.17;97441.15;1797999;79;20913;-65
2020/12/12 06:11:08;;;;;;;6.53;5.70;;;;;;;0.97;84.23;97435.93;1797880;79;21008;-66
2020/12/12 06:13:37;;;;;;;7.47;5.58;;;;;;;0.96;84.22;97437.69;1798034;79;20976;-65
2020/12/12 06:16:07;;;;;;;6.05;5.45;;;;;;;0.96;84.26;97449.59;1797910;79;21349;-65
2020/12/12 06:19:09;;;;;;;6.37;5.78;;;;;;;0.98;84.38;97441.15;1797803;79;20929;-65
2020/12/12 06:21:43;;;;;;;7.25;6.55;;;;;;;0.98;84.43;97437.18;1798002;79;20869;-64
2020/12/12 06:24:16;;;;;;;7.55;6.05;;;;;;;1.00;84.52;97435.31;1797662;79;21338;-65
2020/12/12 06:27:03;;;;;;;7.85;6.20;;;;;;;0.98;84.41;97430.57;1797869;79;20967;-64
2020/12/12 06:29:38;;;;;;;7.80;6.97;;;;;;;0.97;84.36;97430.16;1803260;79;21366;-65
2020/12/12 06:32:05;;;;;;;7.10;6.40;;;;;;;0.98;84.53;97427.92;1787620;79;20924;-65
2020/12/12 06:34:44;;;;;;;7.37;6.67;;;;;;;0.97;84.55;97431.48;1815444;79;20968;-65
2020/12/12 06:37:37;;;;;;;8.45;7.10;;;;;;;1.02;84.56;97432.13;1842351;77;28058;-65
2020/12/12 06:40:16;;;;;;;8.23;7.37;;;;;;;0.99;84.52;97434.06;1817731;79;21275;-65
2020/12/12 06:42:46;;;;;;;8.18;7.37;;;;;;;0.98;84.46;97443.80;1784895;79;22092;-64
2020/12/12 06:45:20;;;;;;;8.03;7.20;;;;;;;0.99;84.51;97445.48;1817534;79;20967;-65
2020/12/12 06:47:50;;;;;;;7.90;7.00;;;;;;;0.97;84.49;97432.81;1817778;79;21295;-65
2020/12/12 06:50:24;;;;;;;7.50;6.80;;;;;;;0.99;84.55;97446.81;1817694;79;21334;-65
2020/12/12 06:52:53;;;;;;;8.68;7.87;;;;;;;1.00;84.65;97445.05;1817725;79;20956;-66
2020/12/12 06:55:23;;;;;;;8.15;7.35;;;;;;;0.99;84.51;97444.16;1817620;79;21405;-65
2020/12/12 06:57:58;;;;;;;6.90;6.20;;;;;;;0.99;84.52;97453.42;1817620;79;20996;-65
2020/12/12 07:00:34;;;;;;;7.70;6.97;;;;;;;1.01;84.50;97456.88;1817588;79;20913;-65
2020/12/12 07:03:07;;;;;;;7.00;6.28;;;;;;;0.99;84.54;97456.06;1817547;79;21464;-66
2020/12/12 07:05:37;;;;;;;7.42;6.60;;;;;;;0.98;84.48;97453.05;1817536;79;20924;-66
2020/12/12 07:08:10;;;;;;;8.18;7.20;;;;;;;0.97;84.49;97452.64;1817608;79;21223;-66
2020/12/12 07:10:42;;;;;;;7.55;6.75;;;;;;;0.98;84.52;97457.02;1817696;78;20912;-64
2020/12/12 07:13:12;;;;;;;8.60;7.28;;;;;;;0.99;84.58;97448.13;1817580;79;20900;-66
2020/12/12 07:15:40;;;;;;;7.60;6.90;;;;;;;1.00;84.45;97452.50;1817447;79;20988;-65
2020/12/12 07:18:11;;;;;;;8.03;7.22;;;;;;;1.02;84.31;97458.56;1817584;79;21358;-65
2020/12/12 07:20:47;;;;;;;13.80;11.43;;;;;;;1.04;84.21;97450.13;1817583;79;21189;-65
2020/12/12 07:23:17;;;;;;;9.63;7.92;;;;;;;1.05;84.21;97443.88;1817498;79;20956;-65
2020/12/12 07:25:45;;;;;;;8.00;7.25;;;;;;;1.05;84.22;97445.20;1817478;79;21015;-66
2020/12/12 07:28:13;;;;;;;7.00;6.40;;;;;;;1.04;84.17;97439.55;1817488;79;20948;-66
2020/12/12 07:30:41;;;;;;;8.20;7.50;;;;;;;1.05;84.20;97444.36;1817588;79;21027;-67
2020/12/12 07:33:09;;;;;;;7.67;6.87;;;;;;;1.07;84.30;97445.13;1784254;79;21356;-65
2020/12/12 07:35:36;;;;;;;7.60;6.80;;;;;;;1.06;84.28;97449.58;1817057;78;21150;-66
2020/12/12 07:38:07;;;;;;;7.87;7.15;;;;;;;1.08;84.21;97454.32;1815538;79;21446;-67
2020/12/12 07:40:35;;;;;;;7.92;7.10;;;;;;;1.10;84.16;97457.38;1815513;79;21394;-65
2020/12/12 07:43:07;;;;;;;7.90;7.10;;;;;;;1.13;84.12;97466.48;1815594;79;20972;-66
2020/12/12 07:48:16;;;;;;;7.72;6.92;;;;;;;1.17;84.01;97460.14;1815052;79;20924;-65
2020/12/12 07:50:45;;;;;;;7.45;6.62;;;;;;;1.19;83.96;97459.59;1814867;79;20928;-65
2020/12/12 07:53:14;;;;;;;7.42;6.72;;;;;;;1.20;83.86;97453.35;1814924;79;21437;-65
2020/12/12 07:55:46;;;;;;;7.55;6.78;;;;;;;1.21;83.86;97458.57;1814960;79;21405;-66
2020/12/12 07:58:18;;;;;;;7.37;6.12;;;;;;;1.23;83.81;97454.53;1813811;79;21447;-66
2020/12/12 08:00:56;;;;;;;7.03;6.42;;;;;;;1.24;83.75;97453.14;1814887;79;20889;-65
2020/12/12 08:03:25;;;;;;;7.87;7.17;;;;;;;1.26;83.65;97453.95;1812860;79;21457;-66
2020/12/12 08:06:08;;;;;;;8.33;7.28;;;;;;;1.28;83.66;97456.52;1814849;79;20974;-65
2020/12/12 08:08:37;;;;;;;8.25;7.45;;;;;;;1.27;83.84;97457.44;1815150;79;20908;-67
2020/12/12 08:11:06;;;;;;;7.60;6.72;;;;;;;1.31;83.79;97458.14;1815081;79;22071;-66
2020/12/12 08:13:33;;;;;;;8.25;7.35;;;;;;;1.30;83.75;97460.42;1814828;79;20936;-66
2020/12/12 08:16:54;;;;;;;11.05;8.18;;;;;;;1.32;83.77;97455.91;1814779;79;21481;-67
2020/12/12 08:18:39;;;;;;;6.08;5.45;;;;;;;1.33;83.75;97457.16;1801299;79;20912;-67
2020/12/12 08:21:16;;;;;;;8.03;7.22;;;;;;;1.35;83.69;97460.58;1815054;79;20912;-66
2020/12/12 08:23:43;;;;;;;9.18;7.05;;;;;;;1.33;83.74;97453.66;1815029;79;21214;-66
2020/12/12 08:26:19;;;;;;;8.13;7.33;;;;;;;1.34;83.95;97461.53;1814717;79;21034;-66
2020/12/12 08:28:47;;;;;;;8.33;7.40;;;;;;;1.35;83.96;97467.66;1814951;79;20908;-67
2020/12/12 08:31:18;;;;;;;7.85;7.00;;;;;;;1.37;83.98;97468.44;1814899;79;20944;-67
2020/12/12 08:33:53;;;;;;;9.15;8.28;;;;;;;1.36;83.79;97470.23;1814941;79;20873;-67
2020/12/12 08:36:24;;;;;;;10.75;9.70;;;;;;;1.37;83.76;97474.61;1819138;78;21412;-65
2020/12/12 08:39:00;;;;;;;10.25;8.88;;;;;;;1.36;83.91;97472.88;1828646;78;21010;-67
2020/12/12 08:41:34;;;;;;;11.80;9.70;;;;;;;1.39;83.90;97477.19;1828759;78;20927;-66
2020/12/12 08:44:05;;;;;;;12.47;10.75;;;;;;;1.39;83.80;97478.03;1828959;78;21571;-66
2020/12/12 08:46:33;;;;;;;11.57;9.58;;;;;;;1.35;83.72;97469.84;1828785;78;20924;-67
2020/12/12 08:49:01;;;;;;;10.93;9.38;;;;;;;1.36;83.68;97464.95;1828712;78;21332;-68
2020/12/12 08:51:32;;;;;;;13.72;12.15;;;;;;;1.35;83.83;97463.22;1828585;78;20915;-67
2020/12/12 08:54:00;;;;;;;18.02;14.63;;;;;;;1.34;83.86;97466.81;1828792;78;20935;-66
2020/12/12 08:56:30;;;;;;;15.43;13.80;;;;;;;1.33;83.82;97461.13;1828670;78;20868;-67
2020/12/12 08:59:02;;;;;;;11.73;10.50;;;;;;;1.33;84.01;97468.21;1828704;78;20916;-66
2020/12/12 09:01:38;;;;;;;11.85;10.30;;;;;;;1.34;84.07;97464.17;1828962;78;22117;-68
2020/12/12 09:04:19;;;;;;;10.78;9.68;;;;;;;1.36;84.00;97457.01;1828863;78;21346;-67
2020/12/12 09:06:57;;;;;;;11.00;9.20;;;;;;;1.36;84.02;97453.52;1828679;78;21345;-67
2020/12/12 09:09:29;;;;;;;12.73;9.98;;;;;;;1.34;83.97;97456.23;1828765;78;21002;-67
2020/12/12 09:12:02;;;;;;;12.45;10.60;;;;;;;1.33;83.87;97455.83;1828923;78;20904;-66
2020/12/12 09:14:34;;;;;;;12.23;10.48;;;;;;;1.35;84.06;97459.73;1828898;78;22345;-66
2020/12/12 09:17:09;;;;;;;12.30;9.97;;;;;;;1.33;84.08;97453.19;1828857;78;20983;-67
2020/12/12 09:19:39;;;;;;;14.53;11.60;;;;;;;1.33;84.08;97453.19;1828780;78;21211;-67
2020/12/12 09:22:10;;;;;;;12.15;10.85;;;;;;;1.36;83.96;97453.52;1828750;78;20924;-67
2020/12/12 09:24:38;;;;;;;13.13;10.55;;;;;;;1.36;83.87;97454.36;1828727;78;20940;-66
2020/12/12 09:27:05;;;;;;;13.20;11.30;;;;;;;1.37;83.76;97450.80;1828701;78;21192;-67
2020/12/12 09:29:33;;;;;;;16.45;10.08;;;;;;;1.40;83.76;97449.33;1828618;78;21988;-66
2020/12/12 09:32:01;;;;;;;10.95;9.00;;;;;;;1.42;83.82;97453.23;1828697;78;20907;-66
2020/12/12 09:34:28;;;;;;;10.75;9.65;;;;;;;1.42;83.83;97451.91;1828651;78;20866;-66
2020/12/12 09:36:56;;;;;;;10.70;9.25;;;;;;;1.43;83.88;97447.86;1818410;78;20912;-67
2020/12/12 09:39:23;;;;;;;10.82;9.38;;;;;;;1.44;83.83;97452.20;1805732;79;21494;-66
2020/12/12 09:41:59;;;;;;;12.35;10.35;;;;;;;1.44;83.55;97445.59;1805608;79;21019;-68
2020/12/12 09:44:28;;;;;;;11.33;10.20;;;;;;;1.48;83.58;97434.86;1805786;79;20878;-66
2020/12/12 09:46:55;;;;;;;11.40;10.15;;;;;;;1.48;83.50;97434.38;1805725;79;20995;-65
2020/12/12 09:49:22;;;;;;;12.40;10.40;;;;;;;1.47;83.62;97437.09;1805654;79;21460;-67
2020/12/12 09:51:50;;;;;;;11.90;9.33;;;;;;;1.46;83.38;97431.44;1805767;79;22043;-67
2020/12/12 09:54:18;;;;;;;10.75;9.48;;;;;;;1.51;83.35;97436.03;1805686;79;20921;-67
2020/12/12 09:56:48;;;;;;;12.13;10.13;;;;;;;1.51;83.36;97434.23;1805673;79;20960;-65
2020/12/12 09:59:17;;;;;;;10.75;9.58;;;;;;;1.52;83.43;97427.17;1805670;79;20917;-67
2020/12/12 10:01:47;;;;;;;10.13;8.73;;;;;;;1.50;83.28;97431.66;1805710;79;20937;-66
2020/12/12 10:04:15;;;;;;;11.00;9.55;;;;;;;1.49;83.23;97422.88;1805836;79;22248;-66
2020/12/12 10:06:43;;;;;;;12.60;11.30;;;;;;;1.50;83.19;97431.66;1805611;79;20972;-67
2020/12/12 10:09:11;;;;;;;13.18;10.35;;;;;;;1.49;83.16;97420.23;1805757;79;21362;-68
2020/12/12 10:11:38;;;;;;;11.33;10.10;;;;;;;1.51;83.19;97429.42;1805706;79;20924;-66
2020/12/12 10:14:06;;;;;;;12.43;10.23;;;;;;;1.51;83.37;97428.09;1805683;79;21287;-66
2020/12/12 10:16:34;;;;;;;12.07;10.45;;;;;;;1.51;83.45;97418.36;1805616;79;21378;-66
2020/12/12 10:19:02;;;;;;;13.10;11.18;;;;;;;1.51;83.34;97418.36;1805658;79;21015;-67
2020/12/12 10:21:29;;;;;;;11.40;10.23;;;;;;;1.53;83.34;97420.93;1805496;79;20917;-67
2020/12/12 10:23:57;;;;;;;13.00;11.25;;;;;;;1.52;83.20;97420.56;1805703;79;20908;-66
2020/12/12 10:26:25;;;;;;;14.05;11.75;;;;;;;1.50;83.21;97423.72;1805718;79;20913;-66
2020/12/12 10:28:53;;;;;;;15.68;12.15;;;;;;;1.47;83.38;97423.42;1805786;79;21275;-66
2020/12/12 10:31:20;;;;;;;16.67;11.43;;;;;;;1.47;83.47;97426.52;1805661;79;20928;-66
2020/12/12 10:33:48;;;;;;;12.80;11.08;;;;;;;1.44;83.52;97431.03;1805679;79;21330;-67
2020/12/12 10:36:18;;;;;;;12.75;11.20;;;;;;;1.44;83.66;97430.19;1804729;79;20920;-67
2020/12/12 10:38:45;;;;;;;11.48;10.30;;;;;;;1.45;83.68;97431.88;1814918;79;20987;-65
2020/12/12 10:41:13;;;;;;;13.55;11.53;;;;;;;1.43;83.66;97420.52;1814786;78;21447;-67
2020/12/12 10:43:40;;;;;;;13.25;11.40;;;;;;;1.41;83.64;97424.56;1814751;79;20999;-66
2020/12/12 10:46:08;;;;;;;14.00;12.45;;;;;;;1.40;83.64;97430.81;1814827;79;20904;-68
2020/12/12 10:48:35;;;;;;;15.25;12.60;;;;;;;1.42;83.71;97426.29;1814848;79;20983;-66
2020/12/12 10:51:03;;;;;;;13.58;12.18;;;;;;;1.42;83.81;97424.97;1814785;79;20959;-66
2020/12/12 10:53:31;;;;;;;13.28;11.68;;;;;;;1.43;83.93;97425.37;1814820;78;21348;-67
2020/12/12 10:55:58;;;;;;;12.47;11.08;;;;;;;1.39;83.88;97432.20;1814727;79;20893;-67
2020/12/12 10:58:27;;;;;;;15.63;13.32;;;;;;;1.37;83.88;97420.81;1814785;79;20916;-68
2020/12/12 11:00:55;;;;;;;14.33;11.73;;;;;;;1.38;83.92;97418.09;1814996;79;21466;-67
2020/12/12 11:03:23;;;;;;;14.85;13.20;;;;;;;1.38;83.99;97420.74;1815050;79;21419;-69
2020/12/12 11:05:54;;;;;;;15.03;12.58;;;;;;;1.39;83.96;97422.47;1814948;78;22272;-66
2020/12/12 11:08:23;;;;;;;14.40;12.53;;;;;;;1.40;84.17;97420.67;1814739;79;21002;-66
2020/12/12 11:10:51;;;;;;;13.65;11.55;;;;;;;1.40;84.13;97420.23;1814787;79;21011;-67
2020/12/12 11:13:20;;;;;;;17.57;12.73;;;;;;;1.41;84.01;97412.66;1814768;79;20912;-68
2020/12/12 11:15:47;;;;;;;16.05;11.75;;;;;;;1.42;83.97;97421.00;1814718;79;20908;-66
2020/12/12 11:18:15;;;;;;;14.60;11.80;;;;;;;1.46;83.88;97422.17;1814844;79;21375;-67
2020/12/12 11:20:43;;;;;;;15.23;12.37;;;;;;;1.48;83.89;97416.33;1814745;79;20972;-67
2020/12/12 11:23:10;;;;;;;15.35;12.33;;;;;;;1.49;83.91;97421.55;1783308;79;20928;-66
2020/12/12 11:25:37;;;;;;;13.18;10.75;;;;;;;1.49;83.93;97426.00;1814868;79;22053;-68
2020/12/12 11:28:05;;;;;;;13.98;11.50;;;;;;;1.49;83.79;97426.00;1815143;79;20993;-66
2020/12/12 11:30:34;;;;;;;16.37;13.70;;;;;;;1.48;83.76;97416.33;1815052;79;22299;-67
2020/12/12 11:33:04;;;;;;;15.68;11.57;;;;;;;1.49;83.79;97427.32;1814982;78;21003;-67
2020/12/12 11:48:16;;;;;;;18.07;11.70;;;;;;;1.47;83.70;97429.16;1805877;79;21358;-65
2020/12/12 11:50:44;;;;;;;17.00;12.40;;;;;;;1.44;83.68;97427.06;1805771;79;20960;-67
2020/12/12 11:53:11;;;;;;;13.83;11.57;;;;;;;1.45;83.56;97430.56;1805762;79;21000;-67
2020/12/12 11:55:39;;;;;;;13.48;11.53;;;;;;;1.44;83.71;97430.19;1805798;79;22811;-67
2020/12/12 11:58:06;;;;;;;91.97;27.00;;;;;;;1.46;83.68;97428.79;1805791;79;20909;-68
2020/12/12 12:00:34;;;;;;;18.40;14.33;;;;;;;1.47;83.76;97431.36;1805805;79;20976;-74
2020/12/12 12:03:06;;;;;;;19.52;15.70;;;;;;;1.43;83.54;97428.02;1805792;79;20966;-72